sensor_id;sensor_type;location;lat;lon;timestamp;P1;durP1;ratioP1;P2;durP2;ratioP2
51838;SDS011;37886;53.174;6.368;2023-03-23T00:01:22;16.65;;;11.68;;
51838;SDS011;37886;53.174;6.368;2023-03-23T00:03:50;15.02;;;13.00;;
51838;SDS011;37886;53.174;6.368;2023-03-23T00:06:17;19.20;;;14.65;;
51838;SDS011;37886;53.174;6.368;2023-03-23T00:08:44;20.48;;;17.02;;
51838;SDS011;37886;53.174;6.368;2023-03-23T00:11:12;19.67;;;17.58;;
51838;SDS011;37886;53.174;6.368;2023-03-23T00:13:43;20.20;;;17.30;;
51838;SDS011;37886;53.174;6.368;2023-03-23T00:16:10;26.40;;;20.20;;
51838;SDS011;37886;53.174;6.368;2023-03-23T00:18:47;24.08;;;19.90;;
51838;SDS011;37886;53.174;6.368;2023-03-23T00:21:17;28.98;;;22.17;;
51838;SDS011;37886;53.174;6.368;2023-03-23T00:23:50;26.40;;;22.50;;
51838;SDS011;37886;53.174;6.368;2023-03-23T00:26:17;27.85;;;22.90;;
51838;SDS011;37886;53.174;6.368;2023-03-23T00:28:43;25.02;;;22.42;;
51838;SDS011;37886;53.174;6.368;2023-03-23T00:31:12;29.27;;;25.38;;
51838;SDS011;37886;53.174;6.368;2023-03-23T00:33:38;35.38;;;28.92;;
51838;SDS011;37886;53.174;6.368;2023-03-23T00:36:09;33.38;;;27.45;;
51838;SDS011;37886;53.174;6.368;2023-03-23T00:38:37;36.60;;;31.13;;
51838;SDS011;37886;53.174;6.368;2023-03-23T00:41:03;36.50;;;30.05;;
51838;SDS011;37886;53.174;6.368;2023-03-23T00:43:29;41.38;;;33.03;;
51838;SDS011;37886;53.174;6.368;2023-03-23T00:45:56;45.67;;;35.83;;
51838;SDS011;37886;53.174;6.368;2023-03-23T00:48:26;40.35;;;34.85;;
51838;SDS011;37886;53.174;6.368;2023-03-23T00:50:53;42.95;;;35.17;;
51838;SDS011;37886;53.174;6.368;2023-03-23T00:53:19;43.83;;;34.92;;
51838;SDS011;37886;53.174;6.368;2023-03-23T00:55:46;36.97;;;31.48;;
51838;SDS011;37886;53.174;6.368;2023-03-23T00:58:12;25.85;;;23.15;;
51838;SDS011;37886;53.174;6.368;2023-03-23T01:00:39;18.88;;;16.92;;
51838;SDS011;37886;53.174;6.368;2023-03-23T01:03:06;17.42;;;15.48;;
51838;SDS011;37886;53.174;6.368;2023-03-23T01:05:36;14.82;;;13.30;;
51838;SDS011;37886;53.174;6.368;2023-03-23T01:08:03;14.82;;;13.43;;
51838;SDS011;37886;53.174;6.368;2023-03-23T01:10:29;13.48;;;12.25;;
51838;SDS011;37886;53.174;6.368;2023-03-23T01:13:00;14.15;;;12.75;;
51838;SDS011;37886;53.174;6.368;2023-03-23T01:15:26;16.27;;;12.20;;
51838;SDS011;37886;53.174;6.368;2023-03-23T01:17:54;13.50;;;12.07;;
51838;SDS011;37886;53.174;6.368;2023-03-23T01:20:20;13.40;;;12.10;;
51838;SDS011;37886;53.174;6.368;2023-03-23T01:22:46;14.25;;;12.93;;
51838;SDS011;37886;53.174;6.368;2023-03-23T01:25:13;12.60;;;11.60;;
51838;SDS011;37886;53.174;6.368;2023-03-23T01:27:39;15.30;;;13.75;;
51838;SDS011;37886;53.174;6.368;2023-03-23T01:30:05;17.02;;;13.40;;
51838;SDS011;37886;53.174;6.368;2023-03-23T01:32:33;16.20;;;14.18;;
51838;SDS011;37886;53.174;6.368;2023-03-23T01:34:59;21.95;;;16.90;;
51838;SDS011;37886;53.174;6.368;2023-03-23T01:37:24;21.27;;;18.98;;
51838;SDS011;37886;53.174;6.368;2023-03-23T01:39:55;27.13;;;19.83;;
51838;SDS011;37886;53.174;6.368;2023-03-23T01:42:22;24.65;;;20.27;;
51838;SDS011;37886;53.174;6.368;2023-03-23T01:47:15;23.23;;;19.23;;
51838;SDS011;37886;53.174;6.368;2023-03-23T01:49:46;22.42;;;19.95;;
51838;SDS011;37886;53.174;6.368;2023-03-23T01:52:18;30.30;;;19.73;;
51838;SDS011;37886;53.174;6.368;2023-03-23T01:54:50;30.48;;;20.50;;
51838;SDS011;37886;53.174;6.368;2023-03-23T01:57:20;24.10;;;18.67;;
51838;SDS011;37886;53.174;6.368;2023-03-23T01:59:49;21.58;;;18.30;;
51838;SDS011;37886;53.174;6.368;2023-03-23T02:02:17;19.25;;;17.25;;
51838;SDS011;37886;53.174;6.368;2023-03-23T02:04:46;25.15;;;19.63;;
51838;SDS011;37886;53.174;6.368;2023-03-23T02:07:12;29.27;;;18.45;;
51838;SDS011;37886;53.174;6.368;2023-03-23T02:09:41;22.33;;;17.85;;
51838;SDS011;37886;53.174;6.368;2023-03-23T02:12:07;25.02;;;19.13;;
51838;SDS011;37886;53.174;6.368;2023-03-23T02:14:32;20.00;;;17.17;;
51838;SDS011;37886;53.174;6.368;2023-03-23T02:17:00;22.70;;;16.98;;
51838;SDS011;37886;53.174;6.368;2023-03-23T02:35:54;23.35;;;15.77;;
51838;SDS011;37886;53.174;6.368;2023-03-23T02:38:35;19.83;;;14.60;;
51838;SDS011;37886;53.174;6.368;2023-03-23T02:41:18;18.60;;;14.68;;
51838;SDS011;37886;53.174;6.368;2023-03-23T02:43:47;19.20;;;15.48;;
51838;SDS011;37886;53.174;6.368;2023-03-23T02:46:16;19.08;;;14.23;;
51838;SDS011;37886;53.174;6.368;2023-03-23T02:48:43;19.70;;;14.05;;
51838;SDS011;37886;53.174;6.368;2023-03-23T02:51:11;16.33;;;14.20;;
51838;SDS011;37886;53.174;6.368;2023-03-23T02:53:39;16.55;;;14.02;;
51838;SDS011;37886;53.174;6.368;2023-03-23T02:56:07;16.42;;;13.90;;
51838;SDS011;37886;53.174;6.368;2023-03-23T02:58:35;21.38;;;14.05;;
51838;SDS011;37886;53.174;6.368;2023-03-23T03:01:15;19.75;;;13.43;;
51838;SDS011;37886;53.174;6.368;2023-03-23T03:03:55;19.30;;;13.25;;
51838;SDS011;37886;53.174;6.368;2023-03-23T03:08:59;19.58;;;13.63;;
51838;SDS011;37886;53.174;6.368;2023-03-23T03:11:31;17.55;;;13.93;;
51838;SDS011;37886;53.174;6.368;2023-03-23T03:14:07;16.95;;;12.90;;
51838;SDS011;37886;53.174;6.368;2023-03-23T03:21:50;15.20;;;13.00;;
51838;SDS011;37886;53.174;6.368;2023-03-23T03:24:19;17.70;;;12.90;;
51838;SDS011;37886;53.174;6.368;2023-03-23T03:26:48;16.67;;;13.10;;
51838;SDS011;37886;53.174;6.368;2023-03-23T03:29:38;16.98;;;12.77;;
51838;SDS011;37886;53.174;6.368;2023-03-23T03:32:06;14.35;;;12.50;;
51838;SDS011;37886;53.174;6.368;2023-03-23T03:34:36;17.25;;;12.30;;
51838;SDS011;37886;53.174;6.368;2023-03-23T03:37:03;20.70;;;12.65;;
51838;SDS011;37886;53.174;6.368;2023-03-23T03:39:30;16.58;;;14.27;;
51838;SDS011;37886;53.174;6.368;2023-03-23T03:41:59;18.83;;;12.70;;
51838;SDS011;37886;53.174;6.368;2023-03-23T03:44:25;22.48;;;13.73;;
51838;SDS011;37886;53.174;6.368;2023-03-23T03:46:51;23.08;;;13.02;;
51838;SDS011;37886;53.174;6.368;2023-03-23T03:49:16;19.25;;;14.00;;
51838;SDS011;37886;53.174;6.368;2023-03-23T03:51:42;21.63;;;14.13;;
51838;SDS011;37886;53.174;6.368;2023-03-23T03:54:08;20.85;;;14.95;;
51838;SDS011;37886;53.174;6.368;2023-03-23T03:56:35;18.30;;;13.40;;
51838;SDS011;37886;53.174;6.368;2023-03-23T03:59:05;32.13;;;28.95;;
51838;SDS011;37886;53.174;6.368;2023-03-23T04:01:33;20.45;;;14.25;;
51838;SDS011;37886;53.174;6.368;2023-03-23T04:03:59;20.27;;;13.20;;
51838;SDS011;37886;53.174;6.368;2023-03-23T04:06:25;17.17;;;15.10;;
51838;SDS011;37886;53.174;6.368;2023-03-23T04:08:56;19.38;;;13.02;;
51838;SDS011;37886;53.174;6.368;2023-03-23T04:11:24;13.02;;;11.55;;
51838;SDS011;37886;53.174;6.368;2023-03-23T04:13:51;16.58;;;11.15;;
51838;SDS011;37886;53.174;6.368;2023-03-23T04:16:17;14.55;;;13.13;;
51838;SDS011;37886;53.174;6.368;2023-03-23T04:18:43;12.38;;;10.02;;
51838;SDS011;37886;53.174;6.368;2023-03-23T04:21:09;11.82;;;10.63;;
51838;SDS011;37886;53.174;6.368;2023-03-23T04:23:35;16.75;;;15.13;;
51838;SDS011;37886;53.174;6.368;2023-03-23T04:26:01;21.58;;;18.98;;
51838;SDS011;37886;53.174;6.368;2023-03-23T04:28:28;13.85;;;11.63;;
51838;SDS011;37886;53.174;6.368;2023-03-23T04:30:58;19.23;;;17.33;;
51838;SDS011;37886;53.174;6.368;2023-03-23T04:33:25;23.65;;;21.90;;
51838;SDS011;37886;53.174;6.368;2023-03-23T04:35:53;13.55;;;11.32;;
51838;SDS011;37886;53.174;6.368;2023-03-23T04:38:22;13.13;;;10.48;;
51838;SDS011;37886;53.174;6.368;2023-03-23T04:40:50;15.93;;;10.30;;
51838;SDS011;37886;53.174;6.368;2023-03-23T04:43:20;21.75;;;19.80;;
51838;SDS011;37886;53.174;6.368;2023-03-23T04:45:56;17.48;;;9.30;;
51838;SDS011;37886;53.174;6.368;2023-03-23T04:48:23;15.77;;;10.95;;
51838;SDS011;37886;53.174;6.368;2023-03-23T04:50:51;14.50;;;9.15;;
51838;SDS011;37886;53.174;6.368;2023-03-23T04:53:17;16.85;;;9.05;;
51838;SDS011;37886;53.174;6.368;2023-03-23T04:55:43;14.20;;;8.73;;
51838;SDS011;37886;53.174;6.368;2023-03-23T04:58:09;15.82;;;9.57;;
51838;SDS011;37886;53.174;6.368;2023-03-23T05:00:37;18.27;;;11.75;;
51838;SDS011;37886;53.174;6.368;2023-03-23T05:03:03;18.38;;;9.45;;
51838;SDS011;37886;53.174;6.368;2023-03-23T05:05:29;18.30;;;9.73;;
51838;SDS011;37886;53.174;6.368;2023-03-23T05:07:56;17.10;;;10.15;;
51838;SDS011;37886;53.174;6.368;2023-03-23T05:10:23;22.42;;;9.90;;
51838;SDS011;37886;53.174;6.368;2023-03-23T05:12:48;21.92;;;11.13;;
51838;SDS011;37886;53.174;6.368;2023-03-23T05:15:14;16.58;;;10.02;;
51838;SDS011;37886;53.174;6.368;2023-03-23T05:17:41;23.75;;;10.55;;
51838;SDS011;37886;53.174;6.368;2023-03-23T05:20:15;21.63;;;12.73;;
51838;SDS011;37886;53.174;6.368;2023-03-23T05:22:48;23.92;;;13.30;;
51838;SDS011;37886;53.174;6.368;2023-03-23T05:25:14;16.60;;;10.18;;
51838;SDS011;37886;53.174;6.368;2023-03-23T05:27:40;23.40;;;12.10;;
51838;SDS011;37886;53.174;6.368;2023-03-23T05:30:14;22.17;;;11.82;;
51838;SDS011;37886;53.174;6.368;2023-03-23T05:32:43;25.67;;;16.10;;
51838;SDS011;37886;53.174;6.368;2023-03-23T05:35:10;28.10;;;10.93;;
51838;SDS011;37886;53.174;6.368;2023-03-23T05:37:36;25.92;;;12.82;;
51838;SDS011;37886;53.174;6.368;2023-03-23T05:40:03;25.35;;;10.07;;
51838;SDS011;37886;53.174;6.368;2023-03-23T05:42:31;29.58;;;10.77;;
51838;SDS011;37886;53.174;6.368;2023-03-23T05:44:58;29.52;;;10.00;;
51838;SDS011;37886;53.174;6.368;2023-03-23T05:47:24;28.25;;;10.48;;
51838;SDS011;37886;53.174;6.368;2023-03-23T05:49:50;38.60;;;10.18;;
51838;SDS011;37886;53.174;6.368;2023-03-23T05:52:17;39.10;;;11.40;;
51838;SDS011;37886;53.174;6.368;2023-03-23T05:54:43;34.22;;;15.35;;
51838;SDS011;37886;53.174;6.368;2023-03-23T05:57:09;39.65;;;11.00;;
51838;SDS011;37886;53.174;6.368;2023-03-23T05:59:35;49.92;;;19.75;;
51838;SDS011;37886;53.174;6.368;2023-03-23T06:02:01;37.28;;;12.63;;
51838;SDS011;37886;53.174;6.368;2023-03-23T06:04:28;38.65;;;11.38;;
51838;SDS011;37886;53.174;6.368;2023-03-23T06:06:54;33.05;;;11.85;;
51838;SDS011;37886;53.174;6.368;2023-03-23T06:09:21;34.22;;;12.95;;
51838;SDS011;37886;53.174;6.368;2023-03-23T06:11:48;36.70;;;10.73;;
51838;SDS011;37886;53.174;6.368;2023-03-23T06:14:15;28.38;;;11.23;;
51838;SDS011;37886;53.174;6.368;2023-03-23T06:16:42;33.40;;;13.18;;
51838;SDS011;37886;53.174;6.368;2023-03-23T06:19:08;31.38;;;11.55;;
51838;SDS011;37886;53.174;6.368;2023-03-23T06:21:37;37.13;;;11.05;;
51838;SDS011;37886;53.174;6.368;2023-03-23T06:24:03;41.80;;;12.38;;
51838;SDS011;37886;53.174;6.368;2023-03-23T06:26:30;30.98;;;11.57;;
51838;SDS011;37886;53.174;6.368;2023-03-23T06:28:58;23.80;;;10.60;;
51838;SDS011;37886;53.174;6.368;2023-03-23T06:31:24;30.30;;;9.93;;
51838;SDS011;37886;53.174;6.368;2023-03-23T06:33:52;24.50;;;11.82;;
51838;SDS011;37886;53.174;6.368;2023-03-23T06:36:18;22.52;;;11.52;;
51838;SDS011;37886;53.174;6.368;2023-03-23T06:38:44;21.95;;;9.27;;
51838;SDS011;37886;53.174;6.368;2023-03-23T06:41:10;25.17;;;15.75;;
51838;SDS011;37886;53.174;6.368;2023-03-23T06:43:36;41.70;;;25.65;;
51838;SDS011;37886;53.174;6.368;2023-03-23T06:46:04;20.25;;;8.73;;
51838;SDS011;37886;53.174;6.368;2023-03-23T06:48:30;28.33;;;25.30;;
51838;SDS011;37886;53.174;6.368;2023-03-23T06:50:57;20.23;;;7.80;;
51838;SDS011;37886;53.174;6.368;2023-03-23T06:53:22;36.55;;;32.70;;
51838;SDS011;37886;53.174;6.368;2023-03-23T06:55:48;21.55;;;10.93;;
51838;SDS011;37886;53.174;6.368;2023-03-23T06:58:14;12.20;;;8.38;;
51838;SDS011;37886;53.174;6.368;2023-03-23T07:00:40;36.95;;;25.55;;
51838;SDS011;37886;53.174;6.368;2023-03-23T07:03:06;22.85;;;9.07;;
51838;SDS011;37886;53.174;6.368;2023-03-23T07:05:33;14.88;;;7.43;;
51838;SDS011;37886;53.174;6.368;2023-03-23T07:08:00;29.77;;;8.48;;
51838;SDS011;37886;53.174;6.368;2023-03-23T07:10:27;31.10;;;10.23;;
51838;SDS011;37886;53.174;6.368;2023-03-23T07:12:53;38.40;;;11.80;;
51838;SDS011;37886;53.174;6.368;2023-03-23T07:15:19;31.58;;;11.02;;
51838;SDS011;37886;53.174;6.368;2023-03-23T07:17:44;32.42;;;9.75;;
51838;SDS011;37886;53.174;6.368;2023-03-23T07:20:12;37.78;;;10.10;;
51838;SDS011;37886;53.174;6.368;2023-03-23T07:22:38;36.67;;;10.10;;
51838;SDS011;37886;53.174;6.368;2023-03-23T07:25:04;41.15;;;12.55;;
51838;SDS011;37886;53.174;6.368;2023-03-23T07:27:30;38.30;;;12.88;;
51838;SDS011;37886;53.174;6.368;2023-03-23T07:29:56;43.40;;;11.68;;
51838;SDS011;37886;53.174;6.368;2023-03-23T07:32:23;45.33;;;13.70;;
51838;SDS011;37886;53.174;6.368;2023-03-23T07:34:49;41.35;;;15.45;;
51838;SDS011;37886;53.174;6.368;2023-03-23T07:37:15;39.53;;;14.20;;
51838;SDS011;37886;53.174;6.368;2023-03-23T07:39:42;40.20;;;11.27;;
51838;SDS011;37886;53.174;6.368;2023-03-23T07:42:07;49.97;;;12.82;;
51838;SDS011;37886;53.174;6.368;2023-03-23T07:44:33;46.47;;;13.10;;
51838;SDS011;37886;53.174;6.368;2023-03-23T07:46:59;48.85;;;12.20;;
51838;SDS011;37886;53.174;6.368;2023-03-23T07:49:25;42.20;;;11.52;;
51838;SDS011;37886;53.174;6.368;2023-03-23T07:51:51;43.90;;;12.18;;
51838;SDS011;37886;53.174;6.368;2023-03-23T07:54:17;42.78;;;11.32;;
51838;SDS011;37886;53.174;6.368;2023-03-23T07:56:43;51.22;;;18.60;;
51838;SDS011;37886;53.174;6.368;2023-03-23T07:59:10;32.75;;;11.35;;
51838;SDS011;37886;53.174;6.368;2023-03-23T08:01:37;48.55;;;13.27;;
51838;SDS011;37886;53.174;6.368;2023-03-23T08:04:04;46.13;;;13.00;;
51838;SDS011;37886;53.174;6.368;2023-03-23T08:06:31;41.95;;;12.48;;
51838;SDS011;37886;53.174;6.368;2023-03-23T08:08:58;38.53;;;11.30;;
51838;SDS011;37886;53.174;6.368;2023-03-23T08:11:25;48.63;;;12.00;;
51838;SDS011;37886;53.174;6.368;2023-03-23T08:13:51;36.25;;;11.00;;
51838;SDS011;37886;53.174;6.368;2023-03-23T08:16:17;45.80;;;12.88;;
51838;SDS011;37886;53.174;6.368;2023-03-23T08:18:44;38.15;;;12.50;;
51838;SDS011;37886;53.174;6.368;2023-03-23T08:21:11;44.08;;;16.30;;
51838;SDS011;37886;53.174;6.368;2023-03-23T08:23:38;43.13;;;11.98;;
51838;SDS011;37886;53.174;6.368;2023-03-23T08:26:08;42.92;;;13.82;;
51838;SDS011;37886;53.174;6.368;2023-03-23T08:28:35;52.35;;;17.60;;
51838;SDS011;37886;53.174;6.368;2023-03-23T08:31:11;68.15;;;42.67;;
51838;SDS011;37886;53.174;6.368;2023-03-23T08:33:39;45.30;;;11.48;;
51838;SDS011;37886;53.174;6.368;2023-03-23T08:36:06;41.17;;;12.23;;
51838;SDS011;37886;53.174;6.368;2023-03-23T08:38:33;46.70;;;13.05;;
51838;SDS011;37886;53.174;6.368;2023-03-23T08:41:00;49.05;;;16.38;;
51838;SDS011;37886;53.174;6.368;2023-03-23T08:43:33;47.70;;;14.13;;
51838;SDS011;37886;53.174;6.368;2023-03-23T08:46:00;48.80;;;16.52;;
51838;SDS011;37886;53.174;6.368;2023-03-23T08:48:31;42.53;;;12.95;;
51838;SDS011;37886;53.174;6.368;2023-03-23T08:50:58;57.85;;;15.73;;
51838;SDS011;37886;53.174;6.368;2023-03-23T08:53:24;47.13;;;12.20;;
51838;SDS011;37886;53.174;6.368;2023-03-23T08:55:51;45.20;;;11.85;;
51838;SDS011;37886;53.174;6.368;2023-03-23T08:58:16;46.85;;;12.73;;
51838;SDS011;37886;53.174;6.368;2023-03-23T09:00:43;48.60;;;12.88;;
51838;SDS011;37886;53.174;6.368;2023-03-23T09:03:08;46.65;;;12.45;;
51838;SDS011;37886;53.174;6.368;2023-03-23T09:05:34;48.75;;;18.88;;
51838;SDS011;37886;53.174;6.368;2023-03-23T09:08:02;46.42;;;12.88;;
51838;SDS011;37886;53.174;6.368;2023-03-23T09:10:28;43.50;;;11.55;;
51838;SDS011;37886;53.174;6.368;2023-03-23T09:12:55;41.67;;;11.43;;
51838;SDS011;37886;53.174;6.368;2023-03-23T09:15:22;45.90;;;20.05;;
51838;SDS011;37886;53.174;6.368;2023-03-23T09:17:49;43.13;;;12.25;;
51838;SDS011;37886;53.174;6.368;2023-03-23T09:20:17;42.80;;;12.57;;
51838;SDS011;37886;53.174;6.368;2023-03-23T09:22:46;43.25;;;25.10;;
51838;SDS011;37886;53.174;6.368;2023-03-23T09:25:14;38.40;;;11.63;;
51838;SDS011;37886;53.174;6.368;2023-03-23T09:27:44;58.20;;;37.03;;
51838;SDS011;37886;53.174;6.368;2023-03-23T09:30:12;45.00;;;12.90;;
51838;SDS011;37886;53.174;6.368;2023-03-23T09:32:39;49.28;;;12.27;;
51838;SDS011;37886;53.174;6.368;2023-03-23T09:35:09;35.28;;;10.70;;
51838;SDS011;37886;53.174;6.368;2023-03-23T09:37:37;43.38;;;12.48;;
51838;SDS011;37886;53.174;6.368;2023-03-23T09:40:05;59.80;;;37.75;;
51838;SDS011;37886;53.174;6.368;2023-03-23T09:51:15;32.85;;;10.82;;
51838;SDS011;37886;53.174;6.368;2023-03-23T09:53:42;43.40;;;18.38;;
51838;SDS011;37886;53.174;6.368;2023-03-23T09:56:14;45.28;;;12.18;;
51838;SDS011;37886;53.174;6.368;2023-03-23T09:58:50;35.40;;;13.15;;
51838;SDS011;37886;53.174;6.368;2023-03-23T10:01:31;31.45;;;10.77;;
51838;SDS011;37886;53.174;6.368;2023-03-23T10:06:47;31.83;;;12.63;;
51838;SDS011;37886;53.174;6.368;2023-03-23T10:09:14;31.83;;;16.05;;
51838;SDS011;37886;53.174;6.368;2023-03-23T10:14:23;25.45;;;10.15;;
51838;SDS011;37886;53.174;6.368;2023-03-23T10:17:10;36.38;;;10.88;;
51838;SDS011;37886;53.174;6.368;2023-03-23T10:22:48;33.83;;;9.88;;
51838;SDS011;37886;53.174;6.368;2023-03-23T10:25:16;33.35;;;10.43;;
51838;SDS011;37886;53.174;6.368;2023-03-23T10:27:46;33.97;;;11.27;;
51838;SDS011;37886;53.174;6.368;2023-03-23T10:30:18;36.05;;;10.95;;
51838;SDS011;37886;53.174;6.368;2023-03-23T10:32:58;26.95;;;9.95;;
51838;SDS011;37886;53.174;6.368;2023-03-23T10:38:26;34.67;;;14.40;;
51838;SDS011;37886;53.174;6.368;2023-03-23T10:41:00;35.63;;;13.80;;
51838;SDS011;37886;53.174;6.368;2023-03-23T10:43:30;36.75;;;10.93;;
51838;SDS011;37886;53.174;6.368;2023-03-23T10:45:59;34.22;;;13.13;;
51838;SDS011;37886;53.174;6.368;2023-03-23T10:48:30;36.85;;;10.23;;
51838;SDS011;37886;53.174;6.368;2023-03-23T10:51:02;33.75;;;9.70;;
51838;SDS011;37886;53.174;6.368;2023-03-23T10:53:31;34.90;;;10.32;;
51838;SDS011;37886;53.174;6.368;2023-03-23T10:56:02;39.28;;;11.07;;
51838;SDS011;37886;53.174;6.368;2023-03-23T10:58:30;49.38;;;11.63;;
51838;SDS011;37886;53.174;6.368;2023-03-23T11:00:59;37.97;;;10.10;;
51838;SDS011;37886;53.174;6.368;2023-03-23T11:05:59;30.45;;;9.30;;
51838;SDS011;37886;53.174;6.368;2023-03-23T11:08:32;42.40;;;14.20;;
51838;SDS011;37886;53.174;6.368;2023-03-23T11:13:45;31.65;;;9.70;;
51838;SDS011;37886;53.174;6.368;2023-03-23T11:16:23;30.65;;;9.38;;
51838;SDS011;37886;53.174;6.368;2023-03-23T11:18:53;30.40;;;10.88;;
51838;SDS011;37886;53.174;6.368;2023-03-23T11:21:19;28.52;;;9.52;;
51838;SDS011;37886;53.174;6.368;2023-03-23T11:23:51;25.00;;;9.32;;
51838;SDS011;37886;53.174;6.368;2023-03-23T11:26:27;22.55;;;8.07;;
51838;SDS011;37886;53.174;6.368;2023-03-23T11:29:18;23.30;;;8.90;;
51838;SDS011;37886;53.174;6.368;2023-03-23T11:31:45;23.77;;;8.30;;
51838;SDS011;37886;53.174;6.368;2023-03-23T11:34:21;36.20;;;23.27;;
51838;SDS011;37886;53.174;6.368;2023-03-23T11:36:57;32.13;;;10.10;;
51838;SDS011;37886;53.174;6.368;2023-03-23T11:42:23;34.13;;;11.65;;
51838;SDS011;37886;53.174;6.368;2023-03-23T11:45:25;27.30;;;9.85;;
51838;SDS011;37886;53.174;6.368;2023-03-23T11:47:55;45.38;;;35.88;;
51838;SDS011;37886;53.174;6.368;2023-03-23T11:50:51;20.27;;;7.90;;
51838;SDS011;37886;53.174;6.368;2023-03-23T11:53:22;27.50;;;21.40;;
51838;SDS011;37886;53.174;6.368;2023-03-23T11:58:59;26.00;;;9.52;;
51838;SDS011;37886;53.174;6.368;2023-03-23T12:04:08;24.98;;;13.70;;
51838;SDS011;37886;53.174;6.368;2023-03-23T12:07:14;24.90;;;11.57;;
51838;SDS011;37886;53.174;6.368;2023-03-23T12:10:02;20.75;;;10.68;;
51838;SDS011;37886;53.174;6.368;2023-03-23T12:12:49;26.25;;;11.23;;
51838;SDS011;37886;53.174;6.368;2023-03-23T12:20:51;24.25;;;11.20;;
51838;SDS011;37886;53.174;6.368;2023-03-23T12:23:39;25.63;;;13.90;;
51838;SDS011;37886;53.174;6.368;2023-03-23T12:26:17;27.55;;;10.98;;
51838;SDS011;37886;53.174;6.368;2023-03-23T12:28:56;23.20;;;11.70;;
51838;SDS011;37886;53.174;6.368;2023-03-23T12:42:55;20.23;;;11.32;;
51838;SDS011;37886;53.174;6.368;2023-03-23T12:47:50;28.63;;;23.70;;
51838;SDS011;37886;53.174;6.368;2023-03-23T12:50:31;20.88;;;14.43;;
51838;SDS011;37886;53.174;6.368;2023-03-23T12:55:48;29.15;;;16.25;;
51838;SDS011;37886;53.174;6.368;2023-03-23T12:58:18;21.00;;;12.82;;
51838;SDS011;37886;53.174;6.368;2023-03-23T13:11:54;25.95;;;12.15;;
51838;SDS011;37886;53.174;6.368;2023-03-23T13:14:33;23.52;;;11.02;;
51838;SDS011;37886;53.174;6.368;2023-03-23T13:17:11;23.25;;;10.57;;
51838;SDS011;37886;53.174;6.368;2023-03-23T13:22:41;29.15;;;9.95;;
51838;SDS011;37886;53.174;6.368;2023-03-23T13:28:18;28.10;;;11.13;;
51838;SDS011;37886;53.174;6.368;2023-03-23T13:30:58;33.63;;;11.18;;
51838;SDS011;37886;53.174;6.368;2023-03-23T13:33:32;29.40;;;9.43;;
51838;SDS011;37886;53.174;6.368;2023-03-23T13:36:05;23.80;;;9.60;;
51838;SDS011;37886;53.174;6.368;2023-03-23T13:38:36;29.13;;;10.82;;
51838;SDS011;37886;53.174;6.368;2023-03-23T13:41:10;25.80;;;10.23;;
51838;SDS011;37886;53.174;6.368;2023-03-23T13:43:38;23.58;;;9.88;;
51838;SDS011;37886;53.174;6.368;2023-03-23T13:56:54;24.27;;;13.40;;
51838;SDS011;37886;53.174;6.368;2023-03-23T13:59:32;32.47;;;10.60;;
51838;SDS011;37886;53.174;6.368;2023-03-23T14:15:54;27.45;;;9.25;;
51838;SDS011;37886;53.174;6.368;2023-03-23T14:18:27;23.70;;;8.37;;
51838;SDS011;37886;53.174;6.368;2023-03-23T14:21:01;27.15;;;12.02;;
51838;SDS011;37886;53.174;6.368;2023-03-23T14:23:30;24.58;;;9.23;;
51838;SDS011;37886;53.174;6.368;2023-03-23T14:26:16;22.83;;;8.82;;
51838;SDS011;37886;53.174;6.368;2023-03-23T14:28:45;30.60;;;12.20;;
51838;SDS011;37886;53.174;6.368;2023-03-23T14:31:20;27.10;;;9.48;;
51838;SDS011;37886;53.174;6.368;2023-03-23T14:33:51;24.08;;;9.80;;
51838;SDS011;37886;53.174;6.368;2023-03-23T14:36:20;23.38;;;9.40;;
51838;SDS011;37886;53.174;6.368;2023-03-23T14:39:00;26.95;;;12.70;;
51838;SDS011;37886;53.174;6.368;2023-03-23T14:41:32;20.13;;;13.13;;
51838;SDS011;37886;53.174;6.368;2023-03-23T14:44:00;23.90;;;8.73;;
51838;SDS011;37886;53.174;6.368;2023-03-23T14:46:27;24.58;;;8.95;;
51838;SDS011;37886;53.174;6.368;2023-03-23T14:48:55;21.27;;;10.93;;
51838;SDS011;37886;53.174;6.368;2023-03-23T14:51:25;20.67;;;8.88;;
51838;SDS011;37886;53.174;6.368;2023-03-23T14:53:52;40.80;;;36.58;;
51838;SDS011;37886;53.174;6.368;2023-03-23T14:56:19;17.80;;;9.32;;
51838;SDS011;37886;53.174;6.368;2023-03-23T14:58:51;22.92;;;11.77;;
51838;SDS011;37886;53.174;6.368;2023-03-23T15:04:04;22.15;;;10.10;;
51838;SDS011;37886;53.174;6.368;2023-03-23T15:06:32;20.40;;;16.20;;
51838;SDS011;37886;53.174;6.368;2023-03-23T15:09:02;22.70;;;19.65;;
51838;SDS011;37886;53.174;6.368;2023-03-23T15:11:53;19.85;;;11.25;;
51838;SDS011;37886;53.174;6.368;2023-03-23T15:14:20;18.70;;;10.00;;
51838;SDS011;37886;53.174;6.368;2023-03-23T15:16:48;25.77;;;22.77;;
51838;SDS011;37886;53.174;6.368;2023-03-23T15:19:36;21.33;;;11.43;;
51838;SDS011;37886;53.174;6.368;2023-03-23T15:22:24;18.75;;;9.00;;
51838;SDS011;37886;53.174;6.368;2023-03-23T15:24:52;25.40;;;16.15;;
51838;SDS011;37886;53.174;6.368;2023-03-23T15:27:33;19.67;;;9.18;;
51838;SDS011;37886;53.174;6.368;2023-03-23T15:30:45;17.52;;;11.32;;
51838;SDS011;37886;53.174;6.368;2023-03-23T15:33:03;21.13;;;11.55;;
51838;SDS011;37886;53.174;6.368;2023-03-23T15:35:56;16.60;;;9.18;;
51838;SDS011;37886;53.174;6.368;2023-03-23T15:38:22;17.88;;;8.68;;
51838;SDS011;37886;53.174;6.368;2023-03-23T15:40:51;17.88;;;8.85;;
51838;SDS011;37886;53.174;6.368;2023-03-23T15:43:23;16.35;;;9.43;;
51838;SDS011;37886;53.174;6.368;2023-03-23T15:48:30;21.40;;;9.60;;
51838;SDS011;37886;53.174;6.368;2023-03-23T15:51:19;18.15;;;8.73;;
51838;SDS011;37886;53.174;6.368;2023-03-23T15:53:47;24.45;;;9.68;;
51838;SDS011;37886;53.174;6.368;2023-03-23T15:56:15;17.77;;;8.57;;
51838;SDS011;37886;53.174;6.368;2023-03-23T15:58:41;20.42;;;8.63;;
51838;SDS011;37886;53.174;6.368;2023-03-23T16:01:10;24.85;;;9.27;;
51838;SDS011;37886;53.174;6.368;2023-03-23T16:06:04;36.08;;;26.73;;
51838;SDS011;37886;53.174;6.368;2023-03-23T16:08:30;27.20;;;9.52;;
51838;SDS011;37886;53.174;6.368;2023-03-23T16:10:56;23.20;;;9.65;;
51838;SDS011;37886;53.174;6.368;2023-03-23T16:13:22;30.98;;;21.10;;
51838;SDS011;37886;53.174;6.368;2023-03-23T16:15:48;27.75;;;9.25;;
51838;SDS011;37886;53.174;6.368;2023-03-23T16:18:18;29.67;;;9.60;;
51838;SDS011;37886;53.174;6.368;2023-03-23T16:20:46;24.95;;;11.02;;
51838;SDS011;37886;53.174;6.368;2023-03-23T16:23:14;25.95;;;8.55;;
51838;SDS011;37886;53.174;6.368;2023-03-23T16:25:40;27.17;;;9.98;;
51838;SDS011;37886;53.174;6.368;2023-03-23T16:28:08;23.67;;;8.55;;
51838;SDS011;37886;53.174;6.368;2023-03-23T16:30:38;30.92;;;9.30;;
51838;SDS011;37886;53.174;6.368;2023-03-23T16:33:04;31.42;;;8.45;;
51838;SDS011;37886;53.174;6.368;2023-03-23T16:35:30;28.98;;;9.02;;
51838;SDS011;37886;53.174;6.368;2023-03-23T16:37:57;28.45;;;8.80;;
51838;SDS011;37886;53.174;6.368;2023-03-23T16:40:23;26.80;;;9.32;;
51838;SDS011;37886;53.174;6.368;2023-03-23T16:42:49;21.73;;;8.15;;
51838;SDS011;37886;53.174;6.368;2023-03-23T16:45:15;27.98;;;9.98;;
51838;SDS011;37886;53.174;6.368;2023-03-23T16:47:42;27.27;;;7.93;;
51838;SDS011;37886;53.174;6.368;2023-03-23T16:50:10;24.42;;;8.35;;